Cross Roads, Indiana
Current Conditions -  °F | °C
As of 11:15 AM on Saturday 25 Oct 2014 (Local Time) from KI67 Reporting Station
Overcast Overcast  
Wind Chill: 59°   Ceiling: 2600
Heat Index: 59°   Visibility: 10mi
Dew Point: 52°   Wind: 6mph
Humidity: 77%   Direction: 190°S
Pressure: 29.99"   Gusts: NA
Location:  39.3079°N, 85.2177°W
Report Text: KI67 251515Z AUTO 19005KT 10SM OVC026 15/11 A2999 RMK AO1
Loading
Personal Weather Stations






























Interactive Weather Map
Tropical Storm Tracking
New forecast layout! Learn more

10-Day Weather Forecast

Advertisements
Track Severe Weather on mobile